Time;durP1;ratioP1;P1;durP2;ratioP2;P2;SDS_P1;SDS_P2;PMS_P1;PMS_P2;Temp;Humidity;BMP_temperature;BMP_pressure;BME280_temperature;BME280_humidity;BME280_pressure;Samples;Min_cycle;Max_cycle;Signal;HPM_P1;HPM_P2
2021/12/23 00:00:08;;;;;;;39.97;24.20;;;-1.80;99.90;;;;;;5093815;28;20537;-88
2021/12/23 00:02:34;;;;;;;38.85;24.13;;;-1.80;99.90;;;;;;5076960;28;20095;-88
2021/12/23 00:04:59;;;;;;;40.88;23.98;;;-0.10;99.90;;;;;;5111989;28;20061;-88
2021/12/23 00:07:25;;;;;;;36.38;22.92;;;-1.80;99.90;;;;;;5110423;28;20077;-88
2021/12/23 00:12:25;;;;;;;41.42;24.00;;;-1.80;99.90;;;;;;5111935;28;20058;-88
2021/12/23 00:14:52;;;;;;;36.80;23.17;;;-1.70;99.90;;;;;;5110058;28;20039;-88
2021/12/23 00:17:26;;;;;;;43.35;23.83;;;-1.70;99.90;;;;;;5110559;28;20051;-87
2021/12/23 00:25:13;;;;;;;42.45;24.58;;;-1.70;99.90;;;;;;5110411;28;20471;-87
2021/12/23 00:27:39;;;;;;;40.97;23.80;;;-0.70;99.90;;;;;;5127202;28;20227;-88
2021/12/23 00:30:05;;;;;;;37.88;23.30;;;-1.60;99.90;;;;;;5109675;28;20043;-87
2021/12/23 00:32:31;;;;;;;40.15;23.60;;;-1.60;99.90;;;;;;5093241;28;20143;-89
2021/12/23 00:34:57;;;;;;;42.60;24.77;;;-1.60;99.90;;;;;;5110145;28;20118;-88
2021/12/23 00:37:22;;;;;;;38.97;24.08;;;-1.60;99.90;;;;;;5111126;28;20090;-87
2021/12/23 00:39:48;;;;;;;38.90;23.35;;;-0.20;99.90;;;;;;5094617;28;20048;-88
2021/12/23 00:42:13;;;;;;;40.58;23.63;;;-1.60;99.90;;;;;;5115918;28;20044;-87
2021/12/23 00:44:40;;;;;;;38.63;23.40;;;-1.30;99.90;;;;;;5115215;28;20055;-88
2021/12/23 00:47:06;;;;;;;38.08;23.70;;;-0.50;99.90;;;;;;5115585;27;20056;-87
2021/12/23 00:49:32;;;;;;;39.33;23.67;;;-1.50;99.90;;;;;;5114400;28;20084;-88
2021/12/23 00:51:58;;;;;;;38.83;22.75;;;-1.50;99.90;;;;;;5113853;28;20109;-87
2021/12/23 00:54:24;;;;;;;39.42;22.98;;;-1.50;99.90;;;;;;5097238;28;20051;-87
2021/12/23 00:56:51;;;;;;;37.90;22.88;;;-1.40;99.90;;;;;;5113311;28;20051;-86
2021/12/23 00:59:16;;;;;;;41.08;23.40;;;-1.30;99.90;;;;;;5113714;28;20169;-87
2021/12/23 01:01:42;;;;;;;37.75;22.83;;;-1.30;99.90;;;;;;5114099;28;20154;-86
2021/12/23 01:04:08;;;;;;;38.53;23.63;;;-1.30;99.90;;;;;;5096674;28;20100;-87
2021/12/23 01:06:34;;;;;;;36.05;22.30;;;-0.50;99.90;;;;;;5113625;28;20051;-86
2021/12/23 01:08:59;;;;;;;38.72;22.08;;;-1.30;99.90;;;;;;5096200;28;20103;-86
2021/12/23 01:11:27;;;;;;;34.00;22.58;;;-1.30;99.90;;;;;;5113441;28;20386;-87
2021/12/23 01:14:14;;;;;;;35.67;22.77;;;-1.30;99.90;;;;;;5096478;28;20068;-87
2021/12/23 01:19:38;;;;;;;33.95;21.00;;;-1.20;99.90;;;;;;5062161;28;20108;-86
2021/12/23 01:22:04;;;;;;;38.60;22.65;;;0.20;99.90;;;;;;5099018;27;20059;-87
2021/12/23 01:24:33;;;;;;;37.47;22.50;;;-1.20;99.90;;;;;;5113407;28;20043;-86
2021/12/23 01:26:58;;;;;;;38.78;23.52;;;-0.40;99.90;;;;;;5112869;28;20051;-87
2021/12/23 01:29:24;;;;;;;39.97;23.40;;;-1.20;99.90;;;;;;5095812;28;20411;-86
2021/12/23 01:31:50;;;;;;;38.63;23.40;;;0.20;99.90;;;;;;5095793;28;20047;-87
2021/12/23 01:34:15;;;;;;;36.13;23.05;;;-1.20;99.90;;;;;;5095722;28;20055;-87
2021/12/23 01:36:41;;;;;;;38.08;21.83;;;-1.10;99.90;;;;;;5113009;28;20051;-86
2021/12/23 01:39:07;;;;;;;35.63;22.35;;;-1.10;99.90;;;;;;5095778;28;20047;-86
2021/12/23 01:41:32;;;;;;;41.78;23.77;;;-0.80;99.90;;;;;;5112990;28;20047;-87
2021/12/23 01:43:58;;;;;;;36.70;22.33;;;-1.10;99.90;;;;;;5078783;28;20048;-87
2021/12/23 01:46:24;;;;;;;37.70;21.58;;;-1.10;99.90;;;;;;5113166;28;20051;-87
2021/12/23 01:48:50;;;;;;;40.85;24.08;;;-1.00;99.90;;;;;;5095864;28;20052;-86
2021/12/23 01:51:16;;;;;;;38.35;22.75;;;-1.00;99.90;;;;;;5078604;28;20051;-87
2021/12/23 01:53:41;;;;;;;37.30;21.50;;;-0.80;99.90;;;;;;5096003;28;20130;-87
2021/12/23 01:56:07;;;;;;;38.08;22.40;;;-1.00;99.90;;;;;;5078484;28;20059;-88
2021/12/23 01:58:36;;;;;;;41.55;23.33;;;-0.90;99.90;;;;;;5095849;28;20105;-88
2021/12/23 02:01:04;;;;;;;44.72;23.48;;;0.20;99.90;;;;;;5096163;28;20063;-87
2021/12/23 02:03:30;;;;;;;40.63;24.85;;;-0.90;99.90;;;;;;5096254;28;20066;-88
2021/12/23 02:05:55;;;;;;;39.97;24.63;;;0.50;99.90;;;;;;5096287;28;20048;-86
2021/12/23 02:08:21;;;;;;;36.05;24.08;;;-0.90;99.90;;;;;;5112598;28;20112;-85
2021/12/23 02:10:47;;;;;;;35.95;22.40;;;-0.80;99.90;;;;;;5113019;28;20104;-87
2021/12/23 02:13:12;;;;;;;40.25;24.60;;;-0.80;99.90;;;;;;5078615;28;20070;-86
2021/12/23 02:15:38;;;;;;;37.88;23.42;;;0.30;99.90;;;;;;5129317;27;20048;-86
2021/12/23 02:18:04;;;;;;;39.75;23.65;;;-0.90;99.90;;;;;;5094754;28;20043;-87
2021/12/23 02:20:31;;;;;;;34.25;21.70;;;-0.90;99.90;;;;;;5112444;28;20055;-86
2021/12/23 02:22:57;;;;;;;39.00;21.85;;;-0.90;99.90;;;;;;5112868;28;20059;-86
2021/12/23 02:25:22;;;;;;;36.70;21.55;;;-0.80;99.90;;;;;;5099414;28;20039;-86
2021/12/23 02:27:48;;;;;;;35.97;22.73;;;-0.50;99.90;;;;;;5117644;28;20130;-86
2021/12/23 02:30:16;;;;;;;32.03;20.42;;;-0.70;99.90;;;;;;5094813;28;20503;-86
2021/12/23 02:32:42;;;;;;;34.25;20.42;;;0.20;99.90;;;;;;5112299;28;20058;-87
2021/12/23 02:35:11;;;;;;;35.65;22.17;;;-0.50;99.90;;;;;;5094705;28;20411;-87
2021/12/23 02:37:37;;;;;;;34.25;22.30;;;-0.70;99.90;;;;;;5095063;28;20392;-86
2021/12/23 02:40:03;;;;;;;35.45;21.83;;;-0.10;99.90;;;;;;5094566;28;20054;-85
2021/12/23 02:42:28;;;;;;;33.83;22.85;;;-0.70;99.90;;;;;;5111808;28;20195;-87
2021/12/23 02:44:54;;;;;;;37.13;22.08;;;-0.10;99.90;;;;;;5111645;28;20096;-86
2021/12/23 02:47:20;;;;;;;29.15;20.48;;;-0.80;99.90;;;;;;5111509;28;20048;-86
2021/12/23 02:49:45;;;;;;;33.55;21.40;;;-0.80;99.90;;;;;;5094576;28;20039;-87
2021/12/23 02:52:11;;;;;;;32.35;20.75;;;0.20;99.90;;;;;;5111224;28;20051;-87
2021/12/23 02:54:37;;;;;;;35.13;21.73;;;-0.80;99.90;;;;;;5111565;28;20059;-87
2021/12/23 02:57:03;;;;;;;34.35;21.77;;;-0.80;99.90;;;;;;5111581;28;20130;-86
2021/12/23 02:59:28;;;;;;;34.53;21.48;;;-0.90;99.90;;;;;;5094637;28;20436;-86
2021/12/23 03:01:54;;;;;;;33.22;21.70;;;-0.40;99.90;;;;;;5111249;28;20134;-86
2021/12/23 03:04:21;;;;;;;34.95;22.42;;;-0.80;99.90;;;;;;5110329;28;20498;-86
2021/12/23 03:06:46;;;;;;;35.40;20.33;;;0.20;99.90;;;;;;5077952;28;20172;-86
2021/12/23 03:09:12;;;;;;;32.92;21.23;;;-0.60;99.90;;;;;;5093746;28;20559;-85
2021/12/23 03:11:40;;;;;;;34.92;20.52;;;0.30;99.90;;;;;;5094511;28;20418;-86
2021/12/23 03:14:06;;;;;;;32.20;20.52;;;-0.60;99.90;;;;;;5110618;28;20051;-84
2021/12/23 03:16:33;;;;;;;39.30;20.90;;;-0.60;99.90;;;;;;5111445;28;20362;-86
2021/12/23 03:18:59;;;;;;;32.50;20.02;;;-0.60;99.90;;;;;;5095297;28;20059;-86
2021/12/23 03:21:25;;;;;;;30.25;19.38;;;-0.50;99.90;;;;;;5094563;28;20081;-86
2021/12/23 03:23:51;;;;;;;32.80;18.90;;;1.20;99.90;;;;;;5095140;28;20043;-85
2021/12/23 03:26:17;;;;;;;29.27;19.63;;;-0.50;99.90;;;;;;5097660;28;20069;-85
2021/12/23 03:28:43;;;;;;;29.98;19.40;;;-0.40;99.90;;;;;;5103465;28;20100;-85
2021/12/23 03:31:08;;;;;;;31.17;19.17;;;0.30;99.90;;;;;;5099289;28;20495;-86
2021/12/23 03:33:34;;;;;;;29.42;18.35;;;-0.10;99.90;;;;;;5111043;28;20051;-86
2021/12/23 03:36:00;;;;;;;30.40;19.52;;;-0.50;99.90;;;;;;5077038;28;20428;-86
2021/12/23 03:38:26;;;;;;;32.78;18.70;;;0.20;99.90;;;;;;5093506;28;20055;-86
2021/12/23 03:40:51;;;;;;;31.50;18.90;;;0.40;99.90;;;;;;5077312;28;20039;-85
2021/12/23 03:43:17;;;;;;;29.05;18.80;;;-0.50;99.90;;;;;;5076897;28;20146;-85
2021/12/23 03:45:44;;;;;;;30.55;18.83;;;0.80;99.90;;;;;;5094097;28;20059;-85
2021/12/23 03:48:11;;;;;;;28.20;18.15;;;-0.40;99.90;;;;;;5093822;28;20058;-84
2021/12/23 03:50:36;;;;;;;28.48;18.75;;;-0.30;99.90;;;;;;5111716;28;20534;-85
2021/12/23 03:53:02;;;;;;;34.83;20.00;;;-0.30;99.90;;;;;;5110624;28;20055;-85
2021/12/23 03:55:28;;;;;;;32.22;20.27;;;0.60;99.90;;;;;;5093175;28;20052;-86
2021/12/23 03:57:53;;;;;;;28.67;18.85;;;-0.40;99.90;;;;;;5110559;28;20048;-85
2021/12/23 04:00:20;;;;;;;30.63;18.63;;;-0.30;99.90;;;;;;5109930;28;20468;-86
2021/12/23 04:02:46;;;;;;;28.58;19.38;;;-0.30;99.90;;;;;;5111662;28;20051;-85
2021/12/23 04:05:12;;;;;;;29.80;17.95;;;-0.30;99.90;;;;;;5110470;28;20059;-86
2021/12/23 04:07:41;;;;;;;30.27;20.02;;;1.00;99.90;;;;;;5110559;28;20051;-86
2021/12/23 04:10:07;;;;;;;29.35;18.63;;;-0.30;99.90;;;;;;5111547;28;20085;-86
2021/12/23 04:12:33;;;;;;;29.25;19.83;;;-0.30;99.90;;;;;;5109979;28;20126;-86
2021/12/23 04:14:58;;;;;;;32.08;19.92;;;-0.30;99.90;;;;;;5110025;28;20111;-86
2021/12/23 04:17:24;;;;;;;30.10;20.00;;;-0.30;99.90;;;;;;5109873;28;20047;-86
2021/12/23 04:19:50;;;;;;;27.50;18.85;;;-0.30;99.90;;;;;;5110134;28;20059;-87
2021/12/23 04:22:16;;;;;;;32.60;19.20;;;0.20;99.90;;;;;;5109928;28;20048;-86
2021/12/23 04:24:41;;;;;;;34.78;19.63;;;-0.20;99.90;;;;;;5093483;28;20394;-86
2021/12/23 04:27:07;;;;;;;33.25;19.88;;;0.40;99.90;;;;;;5110046;28;20052;-86
2021/12/23 04:29:33;;;;;;;33.67;20.23;;;0.40;99.90;;;;;;5075681;28;20048;-85
2021/12/23 04:32:01;;;;;;;32.72;20.08;;;0.70;99.90;;;;;;5076177;28;20051;-85
2021/12/23 04:34:27;;;;;;;30.33;20.10;;;0.30;99.90;;;;;;5109677;28;20087;-86
2021/12/23 04:36:53;;;;;;;31.80;20.02;;;-0.20;99.90;;;;;;5093201;28;20075;-85
2021/12/23 04:39:19;;;;;;;30.25;19.77;;;-0.20;99.90;;;;;;5092700;28;20437;-85
2021/12/23 04:41:44;;;;;;;36.55;19.27;;;-0.20;99.90;;;;;;5076500;28;20543;-85
2021/12/23 04:44:10;;;;;;;32.03;20.80;;;-0.20;99.90;;;;;;5110002;28;20052;-85
2021/12/23 04:46:35;;;;;;;34.15;20.45;;;-0.20;99.90;;;;;;5092755;28;20384;-85
2021/12/23 04:49:01;;;;;;;30.10;18.63;;;-0.10;99.90;;;;;;5110021;28;20099;-84
2021/12/23 04:51:27;;;;;;;29.52;19.88;;;0.20;99.90;;;;;;5109337;28;20154;-85
2021/12/23 04:53:52;;;;;;;32.40;20.23;;;-0.10;99.90;;;;;;5076131;28;20048;-85
2021/12/23 04:56:18;;;;;;;30.95;19.45;;;-0.10;99.90;;;;;;5092635;28;20514;-84
2021/12/23 04:58:44;;;;;;;30.30;18.92;;;0.00;99.90;;;;;;5092981;28;20510;-84
2021/12/23 05:01:19;;;;;;;33.10;19.13;;;0.00;99.90;;;;;;5109951;28;20063;-85
2021/12/23 05:03:47;;;;;;;28.08;18.10;;;0.00;99.90;;;;;;5094239;28;20043;-85
2021/12/23 05:06:13;;;;;;;26.98;18.70;;;0.00;99.90;;;;;;5109938;28;20160;-85
2021/12/23 05:08:39;;;;;;;28.77;18.88;;;1.70;99.90;;;;;;5092514;28;20453;-85
2021/12/23 05:11:05;;;;;;;30.45;18.85;;;0.40;99.90;;;;;;5092940;28;20036;-85
2021/12/23 05:13:30;;;;;;;33.28;20.35;;;0.10;99.90;;;;;;5109458;28;20043;-85
2021/12/23 05:15:56;;;;;;;29.58;19.60;;;0.80;99.90;;;;;;5109619;28;20052;-85
2021/12/23 05:18:22;;;;;;;31.60;18.77;;;0.00;99.90;;;;;;5109254;28;20060;-85
2021/12/23 05:20:48;;;;;;;29.98;19.02;;;0.60;99.90;;;;;;5109753;28;20058;-86
2021/12/23 05:23:14;;;;;;;33.15;20.60;;;0.20;99.90;;;;;;5109697;28;20052;-85
2021/12/23 05:25:40;;;;;;;31.20;19.55;;;0.10;99.90;;;;;;5109817;28;20550;-85
2021/12/23 05:28:06;;;;;;;33.42;19.13;;;0.20;99.90;;;;;;5096241;28;20126;-85
2021/12/23 05:30:31;;;;;;;34.38;20.13;;;0.10;99.90;;;;;;5112873;27;20461;-85
2021/12/23 05:32:57;;;;;;;28.25;15.48;;;0.50;99.90;;;;;;5113839;28;20056;-85
2021/12/23 05:35:23;;;;;;;27.83;17.70;;;0.40;99.90;;;;;;5113148;28;20104;-85
2021/12/23 05:37:49;;;;;;;30.15;17.95;;;1.20;99.90;;;;;;5113109;28;20091;-85
2021/12/23 05:40:16;;;;;;;31.15;18.52;;;0.30;99.90;;;;;;5095982;28;20048;-85
2021/12/23 05:42:42;;;;;;;30.23;19.45;;;0.40;99.90;;;;;;5078817;28;20047;-85
2021/12/23 05:45:09;;;;;;;31.35;19.67;;;0.40;99.90;;;;;;5096081;28;20562;-85
2021/12/23 05:47:34;;;;;;;30.10;19.73;;;0.30;99.90;;;;;;5095666;28;20179;-85
2021/12/23 05:50:00;;;;;;;27.27;17.33;;;0.30;99.90;;;;;;5113131;28;20047;-84
2021/12/23 05:52:26;;;;;;;29.05;19.55;;;1.10;99.90;;;;;;5112662;28;20429;-84
2021/12/23 05:54:52;;;;;;;28.10;18.83;;;0.40;99.90;;;;;;5112754;28;20051;-86
2021/12/23 05:57:17;;;;;;;28.02;18.52;;;0.40;99.90;;;;;;5095683;28;20369;-86
2021/12/23 05:59:43;;;;;;;28.20;19.52;;;0.30;99.90;;;;;;5112259;28;20263;-85
2021/12/23 06:02:09;;;;;;;26.30;15.93;;;1.60;99.90;;;;;;5095805;28;20062;-86
2021/12/23 06:04:35;;;;;;;31.55;19.30;;;1.40;99.90;;;;;;5095163;28;20539;-86
2021/12/23 06:07:01;;;;;;;30.65;19.15;;;0.30;99.90;;;;;;5095665;28;20495;-86
2021/12/23 06:09:27;;;;;;;30.05;18.95;;;0.20;99.90;;;;;;5112423;28;20089;-86
2021/12/23 06:11:53;;;;;;;29.30;19.70;;;-0.60;99.90;;;;;;5112466;28;20148;-86
2021/12/23 06:14:20;;;;;;;32.95;19.83;;;0.70;99.90;;;;;;5112524;28;20069;-86
2021/12/23 06:16:46;;;;;;;30.27;19.00;;;0.30;99.90;;;;;;5095197;28;20472;-86
2021/12/23 06:19:12;;;;;;;30.95;19.00;;;0.40;99.90;;;;;;5078911;28;20055;-86
2021/12/23 06:21:38;;;;;;;29.80;18.95;;;1.40;99.90;;;;;;5112113;28;20052;-85
2021/12/23 06:24:04;;;;;;;28.58;18.80;;;0.40;99.90;;;;;;5095128;28;20085;-84
2021/12/23 06:26:30;;;;;;;32.70;20.17;;;0.40;99.90;;;;;;5111613;28;20047;-84
2021/12/23 06:28:56;;;;;;;28.90;17.25;;;0.40;99.90;;;;;;5094567;28;20054;-85
2021/12/23 06:31:22;;;;;;;31.65;20.13;;;0.50;99.90;;;;;;5077625;28;20051;-85
2021/12/23 06:33:47;;;;;;;31.40;19.83;;;0.50;99.90;;;;;;5094450;28;20116;-85
2021/12/23 06:36:13;;;;;;;32.42;20.15;;;0.40;99.90;;;;;;5094835;28;20043;-85
2021/12/23 06:38:41;;;;;;;35.50;21.52;;;0.40;99.90;;;;;;5076510;28;20051;-86
2021/12/23 06:41:06;;;;;;;34.00;20.02;;;0.40;99.90;;;;;;5094952;28;20090;-86
2021/12/23 06:43:32;;;;;;;38.05;22.42;;;0.40;99.90;;;;;;5094545;28;20087;-84
2021/12/23 06:45:57;;;;;;;32.13;20.40;;;0.40;99.90;;;;;;5111594;28;20080;-86
2021/12/23 06:48:23;;;;;;;34.53;20.23;;;0.50;99.90;;;;;;5112766;28;20046;-85
2021/12/23 06:50:53;;;;;;;33.58;20.58;;;1.10;99.90;;;;;;5111375;28;20054;-85
2021/12/23 06:53:19;;;;;;;26.05;15.18;;;0.60;99.90;;;;;;5111778;28;20122;-85
2021/12/23 06:55:45;;;;;;;33.22;19.90;;;0.90;99.90;;;;;;5111084;28;20147;-85
2021/12/23 06:58:10;;;;;;;31.55;19.92;;;1.70;99.90;;;;;;5111457;28;20047;-85
2021/12/23 07:00:36;;;;;;;32.92;20.63;;;0.70;99.90;;;;;;5093970;28;20059;-85
2021/12/23 07:03:02;;;;;;;33.10;21.23;;;0.70;99.90;;;;;;5094411;28;20048;-84
2021/12/23 07:05:28;;;;;;;33.55;20.75;;;0.80;99.90;;;;;;5094571;28;20128;-85
2021/12/23 07:10:20;;;;;;;35.17;21.88;;;0.80;99.90;;;;;;5111483;28;20221;-85
2021/12/23 07:12:46;;;;;;;34.35;21.92;;;0.80;99.90;;;;;;5110857;28;20100;-86
2021/12/23 07:15:12;;;;;;;34.83;22.85;;;0.70;99.90;;;;;;5094355;28;20469;-85
2021/12/23 07:17:38;;;;;;;34.42;20.52;;;0.60;99.90;;;;;;5110727;28;20079;-86
2021/12/23 07:20:04;;;;;;;38.20;22.42;;;0.90;99.90;;;;;;5110851;28;20602;-85
2021/12/23 07:22:30;;;;;;;35.75;20.80;;;0.60;99.90;;;;;;5093482;28;20051;-85
2021/12/23 07:24:55;;;;;;;34.95;21.23;;;0.70;99.90;;;;;;5110427;28;20055;-85
2021/12/23 07:27:22;;;;;;;33.63;20.48;;;0.70;99.90;;;;;;5111033;28;20048;-86
2021/12/23 07:29:47;;;;;;;37.15;23.17;;;0.70;99.90;;;;;;5110140;28;20047;-85
2021/12/23 07:32:14;;;;;;;35.78;21.67;;;0.70;99.90;;;;;;5110748;28;20522;-85
2021/12/23 07:34:42;;;;;;;37.60;23.00;;;0.70;99.90;;;;;;5076700;28;20560;-85
2021/12/23 07:37:09;;;;;;;36.88;17.65;;;0.70;99.90;;;;;;5110883;28;20134;-86
2021/12/23 07:39:36;;;;;;;35.40;22.73;;;0.70;99.90;;;;;;5110832;28;20043;-85
2021/12/23 07:42:02;;;;;;;39.25;23.52;;;0.70;99.90;;;;;;5110278;28;20187;-86
2021/12/23 07:44:27;;;;;;;38.30;23.45;;;0.70;99.90;;;;;;5110489;28;20054;-85
2021/12/23 07:46:53;;;;;;;36.28;22.98;;;0.60;99.90;;;;;;5110142;28;20052;-85
2021/12/23 07:49:19;;;;;;;35.38;23.02;;;0.60;99.90;;;;;;5110417;28;20050;-86
2021/12/23 07:51:44;;;;;;;33.08;21.50;;;0.50;99.90;;;;;;5111367;28;20044;-84
2021/12/23 07:54:10;;;;;;;38.05;24.13;;;0.60;99.90;;;;;;5093511;28;20059;-86
2021/12/23 07:56:36;;;;;;;39.47;22.98;;;1.00;99.90;;;;;;5111768;28;20055;-85
2021/12/23 07:59:02;;;;;;;37.55;22.63;;;0.60;99.90;;;;;;5109843;28;20443;-87
2021/12/23 08:01:27;;;;;;;34.47;22.35;;;0.60;99.90;;;;;;5093205;28;20120;-85
2021/12/23 08:03:53;;;;;;;41.95;23.83;;;0.50;99.90;;;;;;5109029;28;20384;-84
2021/12/23 08:06:19;;;;;;;36.90;22.55;;;1.20;99.90;;;;;;5110142;28;20048;-85
2021/12/23 08:08:44;;;;;;;37.72;23.92;;;1.60;99.90;;;;;;5075444;28;20043;-83
2021/12/23 08:11:10;;;;;;;38.25;24.65;;;0.50;99.90;;;;;;5092996;28;20059;-85
2021/12/23 08:13:36;;;;;;;36.28;22.35;;;0.50;99.90;;;;;;5110536;28;20044;-85
2021/12/23 08:16:02;;;;;;;37.92;21.60;;;0.60;99.90;;;;;;5109379;28;20086;-85
2021/12/23 08:18:29;;;;;;;34.60;22.65;;;0.70;99.90;;;;;;5092998;28;20127;-85
2021/12/23 08:20:54;;;;;;;36.10;22.77;;;0.60;99.90;;;;;;5108775;28;20082;-85
2021/12/23 08:23:20;;;;;;;35.45;20.33;;;0.50;99.90;;;;;;5110159;28;20090;-85
2021/12/23 08:25:46;;;;;;;40.78;21.88;;;1.50;99.90;;;;;;5109796;28;20092;-84
2021/12/23 08:28:11;;;;;;;39.60;23.42;;;0.90;99.90;;;;;;5093110;28;20115;-84
2021/12/23 08:30:39;;;;;;;39.35;23.85;;;1.50;99.90;;;;;;5109907;28;20088;-86
2021/12/23 08:33:06;;;;;;;41.22;25.15;;;0.70;99.90;;;;;;5075943;28;20059;-84
2021/12/23 08:35:32;;;;;;;40.47;25.35;;;0.70;99.90;;;;;;5109737;28;20070;-84
2021/12/23 08:37:57;;;;;;;40.38;24.02;;;0.60;99.90;;;;;;5076813;28;20039;-85
2021/12/23 08:40:24;;;;;;;39.28;25.38;;;0.70;99.90;;;;;;5095069;28;20044;-84
2021/12/23 08:42:50;;;;;;;41.50;25.48;;;0.70;99.90;;;;;;5111008;28;20047;-84
2021/12/23 08:45:17;;;;;;;37.38;22.38;;;0.70;99.90;;;;;;5094299;28;20054;-86
2021/12/23 08:47:42;;;;;;;38.83;26.58;;;1.10;99.90;;;;;;5111380;28;20039;-86
2021/12/23 08:50:09;;;;;;;40.90;25.10;;;0.60;99.90;;;;;;5076260;28;20234;-85
2021/12/23 08:52:35;;;;;;;44.08;25.65;;;0.60;99.90;;;;;;5127348;28;20052;-84
2021/12/23 08:55:01;;;;;;;41.55;24.17;;;0.60;99.90;;;;;;5092434;28;20047;-84
2021/12/23 08:57:26;;;;;;;43.60;27.17;;;0.60;99.90;;;;;;5103557;28;20082;-84
2021/12/23 08:59:52;;;;;;;42.25;27.27;;;1.40;99.90;;;;;;5111002;28;20047;-85
2021/12/23 09:02:18;;;;;;;42.25;25.63;;;0.60;99.90;;;;;;5114946;28;20040;-85
2021/12/23 09:04:43;;;;;;;43.08;26.42;;;0.60;99.90;;;;;;5097242;28;20043;-86
2021/12/23 09:07:11;;;;;;;44.40;26.05;;;0.60;99.90;;;;;;5096278;28;20051;-86
2021/12/23 09:09:37;;;;;;;41.63;26.05;;;0.70;99.90;;;;;;5113660;28;20050;-85
2021/12/23 09:12:03;;;;;;;47.88;28.85;;;0.70;99.90;;;;;;5096752;28;20371;-85
2021/12/23 09:14:29;;;;;;;44.05;25.50;;;0.60;99.90;;;;;;5113405;28;20039;-84
2021/12/23 09:16:55;;;;;;;44.05;27.27;;;0.60;99.90;;;;;;5095636;28;20054;-85
2021/12/23 09:19:20;;;;;;;45.20;27.60;;;0.50;99.90;;;;;;5114388;28;20047;-84
2021/12/23 09:21:46;;;;;;;44.85;27.67;;;0.60;99.90;;;;;;5113176;28;20059;-84
2021/12/23 09:24:12;;;;;;;49.20;27.42;;;1.90;99.90;;;;;;5095923;28;20428;-85
2021/12/23 09:26:49;;;;;;;45.45;26.40;;;1.10;99.90;;;;;;5113072;28;20047;-86
2021/12/23 09:32:40;;;;;;;49.30;28.30;;;0.70;99.90;;;;;;5097068;28;20108;-86
2021/12/23 09:34:48;;;;;;;53.75;30.40;;;0.60;99.90;;;;;;5098485;28;20078;-83
2021/12/23 09:37:14;;;;;;;51.40;28.77;;;0.60;99.90;;;;;;5095452;28;20146;-83
2021/12/23 09:39:40;;;;;;;56.67;31.02;;;1.40;99.90;;;;;;5112541;28;20080;-83
2021/12/23 09:42:06;;;;;;;53.45;30.83;;;0.60;99.90;;;;;;5095308;28;20079;-84
2021/12/23 09:44:32;;;;;;;56.20;30.42;;;0.60;99.90;;;;;;5112629;28;20047;-85
2021/12/23 09:47:02;;;;;;;55.22;32.33;;;0.70;99.90;;;;;;5095054;28;20055;-83
2021/12/23 09:49:29;;;;;;;55.05;31.17;;;0.70;99.90;;;;;;5079749;28;20058;-85
2021/12/23 09:51:55;;;;;;;59.13;33.92;;;0.70;99.90;;;;;;5078817;28;20377;-82
2021/12/23 09:54:21;;;;;;;61.78;32.03;;;0.70;99.90;;;;;;5095322;28;20495;-82
2021/12/23 09:56:47;;;;;;;63.10;35.08;;;0.70;99.90;;;;;;5095851;27;20086;-83
2021/12/23 09:59:13;;;;;;;66.38;35.35;;;1.70;99.90;;;;;;5111252;28;20066;-82
2021/12/23 10:01:39;;;;;;;65.90;35.85;;;1.80;99.90;;;;;;5095387;28;20035;-83
2021/12/23 10:04:04;;;;;;;66.03;33.80;;;0.60;99.90;;;;;;5094901;28;20108;-83
2021/12/23 10:06:30;;;;;;;68.35;35.70;;;1.60;99.90;;;;;;5095595;28;20055;-82
2021/12/23 10:08:56;;;;;;;73.68;36.70;;;0.60;99.90;;;;;;5113567;28;20040;-83
2021/12/23 10:30:33;;;;;;;75.60;35.75;;;1.10;99.90;;;;;;5111833;28;20146;-82
2021/12/23 10:38:15;;;;;;;82.72;41.00;;;1.50;99.90;;;;;;5110960;28;20441;-83
2021/12/23 10:40:47;;;;;;;74.35;36.03;;;0.80;99.90;;;;;;5094868;28;20052;-83
2021/12/23 10:43:26;;;;;;;83.95;40.03;;;2.10;99.90;;;;;;5094449;28;20059;-82
2021/12/23 10:45:56;;;;;;;91.70;43.15;;;0.80;99.90;;;;;;5111558;28;20051;-82
2021/12/23 10:48:24;;;;;;;87.40;42.40;;;1.70;99.90;;;;;;5094178;28;20118;-81
2021/12/23 10:50:57;;;;;;;86.32;35.42;;;1.10;99.90;;;;;;5094578;28;20055;-82
2021/12/23 10:53:58;;;;;;;87.78;42.65;;;0.90;99.90;;;;;;5110743;28;20047;-82
2021/12/23 10:59:21;;;;;;;81.57;37.95;;;0.80;99.90;;;;;;5112255;28;20067;-84
2021/12/23 11:02:16;;;;;;;83.63;39.72;;;0.90;99.90;;;;;;5113633;28;20181;-85
2021/12/23 11:05:08;;;;;;;89.22;42.72;;;1.00;99.90;;;;;;5095272;28;20039;-84
2021/12/23 11:08:00;;;;;;;93.13;43.85;;;0.90;99.90;;;;;;5111480;28;20048;-82
2021/12/23 11:11:01;;;;;;;86.95;41.28;;;0.80;99.90;;;;;;5111182;28;20461;-84
2021/12/23 11:38:29;;;;;;;93.30;44.13;;;1.40;99.90;;;;;;5107337;28;20048;-84
2021/12/23 11:41:02;;;;;;;93.00;41.33;;;0.90;99.90;;;;;;5093021;28;20047;-84
2021/12/23 11:43:33;;;;;;;94.45;45.15;;;1.00;99.90;;;;;;5094765;28;20472;-84
2021/12/23 11:45:59;;;;;;;92.65;42.05;;;2.30;99.90;;;;;;5077539;28;20047;-85
2021/12/23 11:48:25;;;;;;;96.20;42.70;;;0.90;99.90;;;;;;5089747;28;20069;-86
2021/12/23 11:51:07;;;;;;;90.45;41.80;;;1.30;99.90;;;;;;5109446;28;20047;-86
2021/12/23 11:53:33;;;;;;;99.45;44.85;;;1.00;99.90;;;;;;5079606;28;20036;-85
2021/12/23 11:55:59;;;;;;;89.75;41.53;;;0.90;99.90;;;;;;5092591;28;20097;-82
2021/12/23 11:58:25;;;;;;;98.00;44.50;;;2.10;99.90;;;;;;5108732;28;20085;-83
2021/12/23 12:01:04;;;;;;;94.90;47.65;;;0.90;99.90;;;;;;5076142;28;20090;-83
2021/12/23 12:03:30;;;;;;;105.05;46.88;;;0.90;99.90;;;;;;5092124;28;20515;-84
2021/12/23 12:06:12;;;;;;;101.00;47.47;;;1.10;99.90;;;;;;5092744;28;20130;-84
2021/12/23 12:08:38;;;;;;;97.03;45.75;;;0.80;99.90;;;;;;5092610;28;20483;-83
2021/12/23 12:11:21;;;;;;;87.78;40.03;;;1.00;99.90;;;;;;5075619;28;20050;-84
2021/12/23 12:13:48;;;;;;;102.82;47.08;;;1.10;99.90;;;;;;5109867;28;20060;-84
2021/12/23 12:16:33;;;;;;;113.03;49.30;;;0.90;99.90;;;;;;5076117;28;20046;-83
2021/12/23 12:18:59;;;;;;;98.07;40.30;;;1.00;99.90;;;;;;5093162;28;20055;-84
2021/12/23 12:21:28;;;;;;;116.45;50.55;;;1.60;99.90;;;;;;5075522;28;20383;-83
2021/12/23 12:24:17;;;;;;;115.47;49.50;;;1.00;99.90;;;;;;5093349;28;20047;-84
2021/12/23 12:26:51;;;;;;;115.72;48.10;;;1.00;99.90;;;;;;5075663;28;20105;-84
2021/12/23 12:29:19;;;;;;;112.18;47.53;;;1.10;99.90;;;;;;5109207;28;20058;-84
2021/12/23 12:31:47;;;;;;;104.50;45.65;;;1.00;99.90;;;;;;5075013;28;20059;-83
2021/12/23 12:34:12;;;;;;;109.45;47.33;;;1.30;99.90;;;;;;5109417;28;20073;-83
2021/12/23 12:36:43;;;;;;;97.97;43.97;;;1.10;99.90;;;;;;5111405;28;20566;-83
2021/12/23 12:39:09;;;;;;;108.57;43.65;;;1.10;99.90;;;;;;5080203;28;20475;-83
2021/12/23 12:41:36;;;;;;;110.78;47.88;;;1.10;99.90;;;;;;5112937;28;20160;-82
2021/12/23 12:44:19;;;;;;;105.85;48.10;;;2.10;99.90;;;;;;5096776;28;20539;-82
2021/12/23 12:47:16;;;;;;;112.10;46.97;;;1.80;99.90;;;;;;5097798;28;20043;-83
2021/12/23 12:49:46;;;;;;;111.00;46.58;;;1.10;99.90;;;;;;5112187;28;20409;-83
2021/12/23 12:52:19;;;;;;;107.30;45.58;;;1.20;99.90;;;;;;5080076;28;20039;-82
2021/12/23 12:54:54;;;;;;;100.10;44.65;;;1.10;99.90;;;;;;5096458;28;20169;-83
2021/12/23 12:57:22;;;;;;;105.57;47.33;;;1.10;99.90;;;;;;5113007;28;20562;-83
2021/12/23 12:59:49;;;;;;;106.97;45.28;;;1.10;99.90;;;;;;5096520;28;20134;-82
2021/12/23 13:02:31;;;;;;;102.85;45.65;;;2.10;99.90;;;;;;5113318;28;20052;-83
2021/12/23 13:05:01;;;;;;;107.82;46.50;;;1.10;99.90;;;;;;5096506;28;20060;-83
2021/12/23 13:07:35;;;;;;;109.97;46.88;;;1.10;99.90;;;;;;5112971;28;20055;-86
2021/12/23 13:10:13;;;;;;;102.28;45.38;;;2.50;99.90;;;;;;5113278;28;20082;-82
2021/12/23 13:12:54;;;;;;;108.22;45.63;;;1.10;99.90;;;;;;5097498;28;20131;-86
2021/12/23 13:15:21;;;;;;;103.05;44.00;;;1.60;99.90;;;;;;5113375;28;20062;-84
2021/12/23 13:17:52;;;;;;;101.45;44.45;;;1.10;99.90;;;;;;5095839;28;20043;-82
2021/12/23 13:20:19;;;;;;;108.93;45.72;;;1.10;99.90;;;;;;5113145;28;20054;-83
2021/12/23 13:22:45;;;;;;;100.47;42.85;;;1.20;99.90;;;;;;5112283;28;20127;-83
2021/12/23 13:25:12;;;;;;;106.15;44.60;;;1.20;99.90;;;;;;5112857;28;20565;-83
2021/12/23 13:27:40;;;;;;;108.22;45.42;;;1.20;99.90;;;;;;5078729;28;20071;-83
2021/12/23 13:30:10;;;;;;;100.95;45.47;;;1.20;99.90;;;;;;5096061;28;20040;-83
2021/12/23 13:32:36;;;;;;;101.10;44.60;;;1.20;99.90;;;;;;5094667;28;20122;-84
2021/12/23 13:35:14;;;;;;;93.65;42.40;;;1.20;99.90;;;;;;5112117;28;20047;-84
2021/12/23 13:37:46;;;;;;;92.53;39.20;;;1.20;99.90;;;;;;5095374;28;20062;-84
2021/12/23 13:40:24;;;;;;;116.75;46.35;;;1.20;99.90;;;;;;5112914;28;20044;-84
2021/12/23 13:42:50;;;;;;;100.82;43.05;;;1.20;99.90;;;;;;5096723;28;20816;-83